createdAt,value
2018-12-30T00:01:44.981Z,27.99
2018-12-30T00:04:11.317Z,28.09
2018-12-30T00:06:40.161Z,28.08
2018-12-30T00:09:04.050Z,28.08
2018-12-30T00:11:30.526Z,28.05
2018-12-30T00:13:56.953Z,27.89
2018-12-30T00:16:23.300Z,28.06
2018-12-30T00:18:49.635Z,27.90
2018-12-30T00:21:16.051Z,27.92
2018-12-30T00:23:42.380Z,27.75
2018-12-30T00:26:08.712Z,27.78
2018-12-30T00:28:35.072Z,27.93
2018-12-30T00:31:01.464Z,27.50
2018-12-30T00:33:27.813Z,27.52
2018-12-30T00:35:54.199Z,27.50
2018-12-30T00:38:20.583Z,27.54
2018-12-30T00:40:47.098Z,27.44
2018-12-30T00:43:13.431Z,27.68
2018-12-30T00:45:39.804Z,27.15
2018-12-30T00:48:06.127Z,27.07
2018-12-30T00:50:32.467Z,27.33
2018-12-30T00:52:58.823Z,27.42
2018-12-30T00:55:25.207Z,27.32
2018-12-30T00:57:51.538Z,27.46
2018-12-30T01:00:17.865Z,27.18
2018-12-30T01:02:44.245Z,27.06
2018-12-30T01:05:10.672Z,27.49
2018-12-30T01:07:36.956Z,27.42
2018-12-30T01:10:03.410Z,27.43
2018-12-30T01:12:29.779Z,27.36
2018-12-30T01:14:56.144Z,27.34
2018-12-30T01:17:22.491Z,27.20
2018-12-30T01:19:48.868Z,26.97
2018-12-30T01:22:15.199Z,26.86
2018-12-30T01:24:41.575Z,26.98
2018-12-30T01:27:07.955Z,27.38
2018-12-30T01:29:34.300Z,27.23
2018-12-30T01:32:00.680Z,27.41
2018-12-30T01:34:27.019Z,27.01
2018-12-30T01:36:53.485Z,27.34
2018-12-30T01:39:19.820Z,27.15
2018-12-30T01:41:46.120Z,27.47
2018-12-30T01:44:12.477Z,27.54
2018-12-30T01:46:38.810Z,27.44
2018-12-30T01:49:05.212Z,27.73
2018-12-30T01:51:33.111Z,27.47
2018-12-30T01:53:57.971Z,27.74
2018-12-30T01:56:24.309Z,27.53
2018-12-30T01:58:50.630Z,27.68
2018-12-30T02:01:17.016Z,27.83
2018-12-30T02:03:43.344Z,27.92
2018-12-30T02:06:09.676Z,27.88
2018-12-30T02:08:36.212Z,28.02
2018-12-30T02:11:02.543Z,27.89
2018-12-30T02:13:28.872Z,27.32
2018-12-30T02:15:55.210Z,27.42
2018-12-30T02:18:21.581Z,27.70
2018-12-30T02:20:47.913Z,27.44
2018-12-30T02:23:14.405Z,27.36
2018-12-30T02:25:40.729Z,27.42
2018-12-30T02:28:07.053Z,27.37
2018-12-30T02:30:33.400Z,27.07
2018-12-30T02:32:59.779Z,26.96
2018-12-30T02:35:26.103Z,27.25
2018-12-30T02:37:52.501Z,27.25
2018-12-30T02:40:18.837Z,27.47
2018-12-30T02:42:45.249Z,27.47
2018-12-30T02:45:11.611Z,27.59
2018-12-30T02:47:37.949Z,27.32
2018-12-30T02:50:04.358Z,27.90
2018-12-30T02:52:30.632Z,27.72
2018-12-30T02:54:57.006Z,27.54
2018-12-30T02:57:23.349Z,27.82
2018-12-30T02:59:49.722Z,27.76
2018-12-30T03:02:16.063Z,27.71
2018-12-30T03:04:42.448Z,27.76
2018-12-30T03:07:08.775Z,27.36
2018-12-30T03:09:35.167Z,27.34
2018-12-30T03:12:01.475Z,27.54
2018-12-30T03:14:27.807Z,27.36
2018-12-30T03:16:54.198Z,27.03
2018-12-30T03:19:20.590Z,27.11
2018-12-30T03:21:46.913Z,27.09
2018-12-30T03:24:13.290Z,27.28
2018-12-30T03:26:39.617Z,27.15
2018-12-30T03:29:06.003Z,27.07
2018-12-30T03:31:32.348Z,27.41
2018-12-30T03:33:58.746Z,27.04
2018-12-30T03:36:25.077Z,27.44
2018-12-30T03:38:51.446Z,27.55
2018-12-30T03:41:17.811Z,27.51
2018-12-30T03:43:44.186Z,27.89
2018-12-30T03:46:10.514Z,27.69
2018-12-30T03:48:36.887Z,27.62
2018-12-30T03:51:03.297Z,27.57
2018-12-30T03:53:29.627Z,27.85
2018-12-30T03:55:55.951Z,27.68
2018-12-30T03:58:22.288Z,27.66
2018-12-30T04:00:48.716Z,27.66
2018-12-30T04:03:15.068Z,27.50
2018-12-30T04:05:41.446Z,27.25
2018-12-30T04:08:07.807Z,27.62
2018-12-30T04:10:34.178Z,27.25
2018-12-30T04:13:00.512Z,27.46
2018-12-30T04:15:26.841Z,27.29
2018-12-30T04:17:53.231Z,27.06
2018-12-30T04:20:19.547Z,26.95
2018-12-30T04:22:45.933Z,26.93
2018-12-30T04:25:12.276Z,27.32
2018-12-30T04:27:38.656Z,26.67
2018-12-30T04:30:05.029Z,26.70
2018-12-30T04:32:31.375Z,26.74
2018-12-30T04:34:57.703Z,27.07
2018-12-30T04:37:24.081Z,26.92
2018-12-30T04:39:50.410Z,27.18
2018-12-30T04:42:16.800Z,27.32
2018-12-30T04:44:43.136Z,27.44
2018-12-30T04:47:09.481Z,27.45
2018-12-30T04:49:35.889Z,27.83
2018-12-30T04:52:02.184Z,26.96
2018-12-30T04:54:28.516Z,27.43
2018-12-30T04:56:54.861Z,27.37
2018-12-30T04:59:21.245Z,27.14
2018-12-30T05:01:47.647Z,27.25
2018-12-30T05:04:14.016Z,27.12
2018-12-30T05:06:40.347Z,26.82
2018-12-30T05:09:06.796Z,26.95
2018-12-30T05:11:33.139Z,27.36
2018-12-30T05:13:59.489Z,26.79
2018-12-30T05:16:25.811Z,26.98
2018-12-30T05:18:52.328Z,27.02
2018-12-30T05:21:18.735Z,27.00
2018-12-30T05:23:45.202Z,27.10
2018-12-30T05:26:11.623Z,27.51
2018-12-30T05:28:37.997Z,27.33
2018-12-30T05:31:04.387Z,27.32
2018-12-30T05:33:30.716Z,27.36
2018-12-30T05:35:57.091Z,27.78
2018-12-30T05:38:23.423Z,27.39
2018-12-30T05:40:49.775Z,27.71
2018-12-30T05:43:16.199Z,27.34
2018-12-30T05:45:42.562Z,27.23
2018-12-30T05:48:11.922Z,28.05
2018-12-30T05:50:38.240Z,27.95
2018-12-30T05:53:04.625Z,27.96
2018-12-30T05:55:31.021Z,27.47
2018-12-30T05:57:57.415Z,27.21
2018-12-30T06:00:23.744Z,27.02
2018-12-30T06:02:50.168Z,27.61
2018-12-30T06:05:16.455Z,27.39
2018-12-30T06:07:42.796Z,27.58
2018-12-30T06:10:09.125Z,27.90
2018-12-30T06:12:35.450Z,26.96
2018-12-30T06:15:01.799Z,27.00
2018-12-30T06:17:28.118Z,27.10
2018-12-30T06:19:54.478Z,27.02
2018-12-30T06:22:20.787Z,27.19
2018-12-30T06:24:47.135Z,26.97
2018-12-30T06:27:13.462Z,26.92
2018-12-30T06:29:39.802Z,27.38
2018-12-30T06:32:06.129Z,27.41
2018-12-30T06:34:32.517Z,27.37
2018-12-30T06:36:58.840Z,27.12
2018-12-30T06:39:25.212Z,27.53
2018-12-30T06:41:51.592Z,27.53
2018-12-30T06:44:17.917Z,27.33
2018-12-30T06:46:44.254Z,27.54
2018-12-30T06:49:10.713Z,27.56
2018-12-30T06:51:36.964Z,27.66
2018-12-30T06:54:03.279Z,27.79
2018-12-30T06:56:29.613Z,27.66
2018-12-30T06:58:56.150Z,27.55
2018-12-30T07:01:22.568Z,27.37
2018-12-30T07:03:48.919Z,27.25
2018-12-30T07:06:15.276Z,27.49
2018-12-30T07:08:41.605Z,27.46
2018-12-30T07:11:07.984Z,27.34
2018-12-30T07:13:34.314Z,27.12
2018-12-30T07:16:00.672Z,27.15
2018-12-30T07:18:27.001Z,27.21
2018-12-30T07:20:53.378Z,27.20
2018-12-30T07:23:19.702Z,26.94
2018-12-30T07:25:46.031Z,26.99
2018-12-30T07:28:12.404Z,26.92
2018-12-30T07:30:38.735Z,26.89
2018-12-30T07:33:05.078Z,26.96
2018-12-30T07:35:31.499Z,27.06
2018-12-30T07:37:57.793Z,26.98
2018-12-30T07:40:24.187Z,26.49
2018-12-30T07:42:50.512Z,26.76
2018-12-30T07:45:16.889Z,26.70
2018-12-30T07:47:43.232Z,26.41
2018-12-30T07:50:09.577Z,26.80
2018-12-30T07:52:35.999Z,26.82
2018-12-30T07:55:02.472Z,26.88
2018-12-30T07:57:28.832Z,26.53
2018-12-30T07:59:56.059Z,26.71
2018-12-30T08:02:21.520Z,26.74
2018-12-30T08:04:47.859Z,27.26
2018-12-30T08:07:14.185Z,26.79
2018-12-30T08:09:40.528Z,26.88
2018-12-30T08:12:06.935Z,26.89
2018-12-30T08:14:33.275Z,26.72
2018-12-30T08:16:59.606Z,26.98
2018-12-30T08:19:25.997Z,27.22
2018-12-30T08:21:52.327Z,26.89
2018-12-30T08:24:18.731Z,27.12
2018-12-30T08:26:45.072Z,26.90
2018-12-30T08:29:11.424Z,26.79
2018-12-30T08:31:37.760Z,27.01
2018-12-30T08:34:04.205Z,26.85
2018-12-30T08:36:30.462Z,27.25
2018-12-30T08:38:56.795Z,27.30
2018-12-30T08:41:23.133Z,27.16
2018-12-30T08:43:49.457Z,27.12
2018-12-30T08:46:15.798Z,27.51
2018-12-30T08:48:42.204Z,27.22
2018-12-30T08:51:10.276Z,27.22
2018-12-30T08:53:34.872Z,27.50
2018-12-30T08:56:01.278Z,26.89
2018-12-30T08:58:27.613Z,26.89
2018-12-30T09:00:53.987Z,26.92
2018-12-30T09:03:20.309Z,27.00
2018-12-30T09:05:46.656Z,26.54
2018-12-30T09:08:13.059Z,26.69
2018-12-30T09:10:39.495Z,26.54
2018-12-30T09:13:05.823Z,26.79
2018-12-30T09:15:32.166Z,26.67
2018-12-30T09:17:58.620Z,26.90
2018-12-30T09:20:24.956Z,26.76
2018-12-30T09:22:51.314Z,26.60
2018-12-30T09:25:17.712Z,26.68
2018-12-30T09:27:44.059Z,26.70
2018-12-30T09:30:10.470Z,26.50
2018-12-30T09:32:36.810Z,26.37
2018-12-30T09:35:03.173Z,26.45
2018-12-30T09:37:29.510Z,26.56
2018-12-30T09:39:55.848Z,26.47
2018-12-30T09:42:22.192Z,26.56
2018-12-30T09:44:48.540Z,26.25
2018-12-30T09:47:14.865Z,26.05
2018-12-30T09:49:43.422Z,26.44
2018-12-30T09:52:09.746Z,26.09
2018-12-30T09:54:36.136Z,26.06
2018-12-30T09:57:02.495Z,26.47
2018-12-30T09:59:28.840Z,26.70
2018-12-30T10:01:55.170Z,26.38
2018-12-30T10:04:21.497Z,26.38
2018-12-30T10:06:47.831Z,26.47
2018-12-30T10:09:14.175Z,26.49
2018-12-30T10:11:40.493Z,26.38
2018-12-30T10:14:06.877Z,26.34
2018-12-30T10:16:33.278Z,26.18
2018-12-30T10:18:59.605Z,26.44
2018-12-30T10:21:25.941Z,26.38
2018-12-30T10:23:53.094Z,26.79
2018-12-30T10:26:18.677Z,26.24
2018-12-30T10:28:44.987Z,26.41
2018-12-30T10:31:11.289Z,26.72
2018-12-30T10:33:37.611Z,26.76
2018-12-30T10:36:03.944Z,26.41
2018-12-30T10:38:30.331Z,26.20
2018-12-30T10:40:56.687Z,26.25
2018-12-30T10:43:23.015Z,26.15
2018-12-30T10:45:49.350Z,26.40
2018-12-30T10:48:15.731Z,26.54
2018-12-30T10:50:42.059Z,26.21
2018-12-30T10:53:08.406Z,26.17
2018-12-30T10:55:34.766Z,26.25
2018-12-30T10:58:01.073Z,25.89
2018-12-30T11:00:27.421Z,26.06
2018-12-30T11:02:56.236Z,25.98
2018-12-30T11:05:22.627Z,26.25
2018-12-30T11:07:48.942Z,26.12
2018-12-30T11:10:15.251Z,26.14
2018-12-30T11:12:41.643Z,26.34
2018-12-30T11:15:07.984Z,25.97
2018-12-30T11:17:34.384Z,26.18
2018-12-30T11:20:00.746Z,26.21
2018-12-30T11:22:27.108Z,26.24
2018-12-30T11:24:53.445Z,26.07
2018-12-30T11:27:19.796Z,26.15
2018-12-30T11:29:46.127Z,26.09
2018-12-30T11:32:12.457Z,25.96
2018-12-30T11:34:38.791Z,26.11
2018-12-30T11:37:05.126Z,26.02
2018-12-30T11:39:31.448Z,26.26
2018-12-30T11:41:57.780Z,25.92
2018-12-30T11:44:24.118Z,25.94
2018-12-30T11:46:50.481Z,26.14
2018-12-30T11:49:16.813Z,25.90
2018-12-30T11:51:43.175Z,25.78
2018-12-30T11:54:16.255Z,25.92
2018-12-30T11:56:35.856Z,26.12
2018-12-30T11:59:02.149Z,26.03
2018-12-30T12:01:28.481Z,26.13
2018-12-30T12:03:54.812Z,25.78
2018-12-30T12:06:21.143Z,26.06
2018-12-30T12:08:47.640Z,25.92
2018-12-30T12:11:13.987Z,26.07
2018-12-30T12:13:40.325Z,26.15
2018-12-30T12:16:06.701Z,26.04
2018-12-30T12:18:32.989Z,25.90
2018-12-30T12:20:59.332Z,26.02
2018-12-30T12:23:25.670Z,25.88
2018-12-30T12:25:51.991Z,26.02
2018-12-30T12:28:18.323Z,26.09
2018-12-30T12:30:44.651Z,25.86
2018-12-30T12:33:11.054Z,26.12
2018-12-30T12:35:37.407Z,26.15
2018-12-30T12:38:03.745Z,25.86
2018-12-30T12:40:30.082Z,25.89
2018-12-30T12:42:56.412Z,26.13
2018-12-30T12:45:22.803Z,25.93
2018-12-30T12:47:49.123Z,26.23
2018-12-30T12:50:15.455Z,25.99
2018-12-30T12:52:41.802Z,26.15
2018-12-30T12:55:08.174Z,26.03
2018-12-30T12:57:34.511Z,26.25
2018-12-30T13:00:00.842Z,26.27
2018-12-30T13:02:27.177Z,26.12
2018-12-30T13:04:53.517Z,26.23
2018-12-30T13:07:19.894Z,26.28
2018-12-30T13:09:46.219Z,25.75
2018-12-30T13:12:12.587Z,25.91
2018-12-30T13:14:38.919Z,25.75
2018-12-30T13:17:05.250Z,26.09
2018-12-30T13:19:31.580Z,26.02
2018-12-30T13:21:57.980Z,25.98
2018-12-30T13:24:24.312Z,25.85
2018-12-30T13:26:50.699Z,25.88
2018-12-30T13:29:17.015Z,26.09
2018-12-30T13:31:43.377Z,26.31
2018-12-30T13:34:09.712Z,26.22
2018-12-30T13:36:36.066Z,26.14
2018-12-30T13:39:02.398Z,26.38
2018-12-30T13:41:28.732Z,26.10
2018-12-30T13:43:55.056Z,26.17
2018-12-30T13:46:21.388Z,25.88
2018-12-30T13:48:47.726Z,26.02
2018-12-30T13:51:14.061Z,25.82
2018-12-30T13:53:40.397Z,26.45
2018-12-30T13:56:06.731Z,25.99
2018-12-30T13:58:33.123Z,25.87
2018-12-30T14:00:59.520Z,26.10
2018-12-30T14:03:25.971Z,26.15
2018-12-30T14:05:52.260Z,25.94
2018-12-30T14:08:18.659Z,26.41
2018-12-30T14:10:45.000Z,26.20
2018-12-30T14:13:11.376Z,25.66
2018-12-30T14:15:37.697Z,25.99
2018-12-30T14:18:04.084Z,25.66
2018-12-30T14:20:30.427Z,26.25
2018-12-30T14:22:56.749Z,25.63
2018-12-30T14:25:23.165Z,25.98
2018-12-30T14:27:49.542Z,26.09
2018-12-30T14:30:15.925Z,25.74
2018-12-30T14:32:42.282Z,25.50
2018-12-30T14:35:08.658Z,25.74
2018-12-30T14:37:35.045Z,26.06
2018-12-30T14:40:01.444Z,25.53
2018-12-30T14:42:27.821Z,25.87
2018-12-30T14:44:54.202Z,25.76
2018-12-30T14:47:20.776Z,25.60
2018-12-30T14:49:47.113Z,25.68
2018-12-30T14:52:13.443Z,25.57
2018-12-30T14:54:39.836Z,25.94
2018-12-30T14:57:06.179Z,25.73
2018-12-30T14:59:32.596Z,25.96
2018-12-30T15:01:58.964Z,25.69
2018-12-30T15:04:25.296Z,25.86
2018-12-30T15:06:51.693Z,25.85
2018-12-30T15:09:18.065Z,26.03
2018-12-30T15:11:44.474Z,25.86
2018-12-30T15:14:10.905Z,25.88
2018-12-30T15:16:37.230Z,26.01
2018-12-30T15:19:03.559Z,26.00
2018-12-30T15:21:29.949Z,26.10
2018-12-30T15:23:56.354Z,25.96
2018-12-30T15:26:22.743Z,26.18
2018-12-30T15:28:49.075Z,26.05
2018-12-30T15:31:15.421Z,26.06
2018-12-30T15:33:41.806Z,26.38
2018-12-30T15:36:08.126Z,26.40
2018-12-30T15:38:34.501Z,26.35
2018-12-30T15:41:00.842Z,26.50
2018-12-30T15:43:27.220Z,26.26
2018-12-30T15:45:53.539Z,26.82
2018-12-30T15:48:22.172Z,26.53
2018-12-30T15:50:48.511Z,26.60
2018-12-30T15:53:14.884Z,26.83
2018-12-30T15:55:41.207Z,26.73
2018-12-30T15:58:07.600Z,26.91
2018-12-30T16:00:33.969Z,27.05
2018-12-30T16:03:00.296Z,27.08
2018-12-30T16:05:26.674Z,26.92
2018-12-30T16:07:53.061Z,26.79
2018-12-30T16:10:19.400Z,27.07
2018-12-30T16:12:45.838Z,27.00
2018-12-30T16:15:12.171Z,26.91
2018-12-30T16:17:38.502Z,27.34
2018-12-30T16:20:04.873Z,27.29
2018-12-30T16:22:31.250Z,27.11
2018-12-30T16:24:57.631Z,27.31
2018-12-30T16:27:24.056Z,27.36
2018-12-30T16:29:50.385Z,27.33
2018-12-30T16:32:16.857Z,27.44
2018-12-30T16:34:43.248Z,27.50
2018-12-30T16:37:09.614Z,27.66
2018-12-30T16:39:35.973Z,27.63
2018-12-30T16:42:02.313Z,27.66
2018-12-30T16:44:28.705Z,27.69
2018-12-30T16:46:55.052Z,27.77
2018-12-30T16:49:21.442Z,27.63
2018-12-30T16:51:47.778Z,27.63
2018-12-30T16:54:14.118Z,27.95
2018-12-30T16:56:40.505Z,27.80
2018-12-30T16:59:06.837Z,27.92
2018-12-30T17:01:33.228Z,27.95
2018-12-30T17:03:59.569Z,27.95
2018-12-30T17:06:26.872Z,27.87
2018-12-30T17:08:52.291Z,27.93
2018-12-30T17:11:18.656Z,28.08
2018-12-30T17:13:44.971Z,27.82
2018-12-30T17:16:11.379Z,28.05
2018-12-30T17:18:37.766Z,28.21
2018-12-30T17:21:04.148Z,28.21
2018-12-30T17:23:30.483Z,28.11
2018-12-30T17:25:56.882Z,28.26
2018-12-30T17:28:23.202Z,28.25
2018-12-30T17:30:49.541Z,28.16
2018-12-30T17:33:15.872Z,28.25
2018-12-30T17:35:42.257Z,28.26
2018-12-30T17:38:08.634Z,28.37
2018-12-30T17:40:38.656Z,28.24
2018-12-30T17:43:04.088Z,28.31
2018-12-30T17:45:30.455Z,28.44
2018-12-30T17:47:56.787Z,28.40
2018-12-30T17:50:23.200Z,28.53
2018-12-30T17:52:49.500Z,28.52
2018-12-30T17:55:15.905Z,28.45
2018-12-30T17:57:42.242Z,28.52
2018-12-30T18:00:08.646Z,28.60
2018-12-30T18:02:34.987Z,28.53
2018-12-30T18:05:01.385Z,28.63
2018-12-30T18:07:27.833Z,28.66
2018-12-30T18:09:54.121Z,28.68
2018-12-30T18:12:20.526Z,28.47
2018-12-30T18:14:46.837Z,28.64
2018-12-30T18:17:13.235Z,28.60
2018-12-30T18:19:39.605Z,28.73
2018-12-30T18:22:06.000Z,28.73
2018-12-30T18:24:32.339Z,28.66
2018-12-30T18:26:58.740Z,28.79
2018-12-30T18:29:25.022Z,28.75
2018-12-30T18:31:51.402Z,28.73
2018-12-30T18:34:17.846Z,28.66
2018-12-30T18:36:44.194Z,28.80
2018-12-30T18:39:10.543Z,28.72
2018-12-30T18:41:36.881Z,28.84
2018-12-30T18:44:03.273Z,28.69
2018-12-30T18:46:29.667Z,28.91
2018-12-30T18:48:56.018Z,28.77
2018-12-30T18:51:22.369Z,28.85
2018-12-30T18:53:48.811Z,28.85
2018-12-30T18:56:15.109Z,28.95
2018-12-30T18:58:41.478Z,29.00
2018-12-30T19:01:07.818Z,28.96
2018-12-30T19:03:34.266Z,28.88
2018-12-30T19:06:00.581Z,28.96
2018-12-30T19:08:26.925Z,29.05
2018-12-30T19:10:53.262Z,29.05
2018-12-30T19:13:19.615Z,28.92
2018-12-30T19:15:45.945Z,29.12
2018-12-30T19:18:12.346Z,29.12
2018-12-30T19:20:38.710Z,29.13
2018-12-30T19:23:05.172Z,29.18
2018-12-30T19:25:31.543Z,29.27
2018-12-30T19:27:57.976Z,29.31
2018-12-30T19:30:24.252Z,29.28
2018-12-30T19:32:50.636Z,29.30
2018-12-30T19:35:17.041Z,29.37
2018-12-30T19:37:43.387Z,29.39
2018-12-30T19:40:09.729Z,29.44
2018-12-30T19:42:36.136Z,29.40
2018-12-30T19:45:02.470Z,29.47
2018-12-30T19:47:28.862Z,29.52
2018-12-30T19:49:55.284Z,29.50
2018-12-30T19:52:21.687Z,29.53
2018-12-30T19:54:48.020Z,29.52
2018-12-30T19:57:14.357Z,29.43
2018-12-30T19:59:40.817Z,29.50
2018-12-30T20:02:07.117Z,29.47
2018-12-30T20:04:40.420Z,29.56
2018-12-30T20:06:59.845Z,29.49
2018-12-30T20:09:26.217Z,29.62
2018-12-30T20:11:52.538Z,29.63
2018-12-30T20:14:18.937Z,29.59
2018-12-30T20:16:45.289Z,29.70
2018-12-30T20:19:11.764Z,29.61
2018-12-30T20:21:38.034Z,29.71
2018-12-30T20:24:04.368Z,29.68
2018-12-30T20:26:30.796Z,29.73
2018-12-30T20:28:57.150Z,29.74
2018-12-30T20:31:23.467Z,29.77
2018-12-30T20:33:49.907Z,29.79
2018-12-30T20:36:16.232Z,29.82
2018-12-30T20:38:42.611Z,29.75
2018-12-30T20:41:08.955Z,29.85
2018-12-30T20:43:35.334Z,29.81
2018-12-30T20:46:01.674Z,29.88
2018-12-30T20:48:28.047Z,29.94
2018-12-30T20:50:54.421Z,29.93
2018-12-30T20:53:20.748Z,30.05
2018-12-30T20:55:47.159Z,29.96
2018-12-30T20:58:13.488Z,30.14
2018-12-30T21:00:39.902Z,30.36
2018-12-30T21:03:06.275Z,30.38
2018-12-30T21:05:32.615Z,30.48
2018-12-30T21:07:58.953Z,30.51
2018-12-30T21:10:25.407Z,30.51
2018-12-30T21:12:51.819Z,30.54
2018-12-30T21:15:18.283Z,30.53
2018-12-30T21:17:44.776Z,30.65
2018-12-30T21:20:11.049Z,30.58
2018-12-30T21:22:40.240Z,30.62
2018-12-30T21:25:06.575Z,30.72
2018-12-30T21:27:32.907Z,30.97
2018-12-30T21:29:59.318Z,31.01
2018-12-30T21:32:25.629Z,31.04
2018-12-30T21:34:52.035Z,31.01
2018-12-30T21:37:18.336Z,31.06
2018-12-30T21:39:44.736Z,31.12
2018-12-30T21:42:11.065Z,31.16
2018-12-30T21:44:37.392Z,31.12
2018-12-30T21:47:03.722Z,31.15
2018-12-30T21:49:30.043Z,31.15
2018-12-30T21:51:56.392Z,31.23
2018-12-30T21:54:22.738Z,31.24
2018-12-30T21:56:54.680Z,31.30
2018-12-30T21:59:15.457Z,31.20
2018-12-30T22:01:41.850Z,31.40
2018-12-30T22:04:08.187Z,31.62
2018-12-30T22:06:34.506Z,31.68
2018-12-30T22:09:00.902Z,31.75
2018-12-30T22:11:27.237Z,31.63
2018-12-30T22:13:53.669Z,31.72
2018-12-30T22:16:19.946Z,32.06
2018-12-30T22:18:46.272Z,32.07
2018-12-30T22:21:12.655Z,32.07
2018-12-30T22:23:39.003Z,32.07
2018-12-30T22:26:05.375Z,32.10
2018-12-30T22:28:31.710Z,32.11
2018-12-30T22:30:58.110Z,32.11
2018-12-30T22:33:24.534Z,32.04
2018-12-30T22:35:50.808Z,32.11
2018-12-30T22:38:17.196Z,32.14
2018-12-30T22:40:43.526Z,32.16
2018-12-30T22:43:09.855Z,32.15
2018-12-30T22:45:36.229Z,32.15
2018-12-30T22:48:02.628Z,32.36
2018-12-30T22:50:28.961Z,32.41
2018-12-30T22:52:55.350Z,32.37
2018-12-30T22:55:21.690Z,32.66
2018-12-30T22:57:48.057Z,32.76
2018-12-30T23:00:14.447Z,32.76
2018-12-30T23:02:40.877Z,32.77
2018-12-30T23:05:07.183Z,32.71
2018-12-30T23:07:33.559Z,32.74
2018-12-30T23:09:59.877Z,32.79
2018-12-30T23:12:26.348Z,33.22
2018-12-30T23:14:52.692Z,33.15
2018-12-30T23:17:19.014Z,33.10
2018-12-30T23:19:45.352Z,33.00
2018-12-30T23:22:11.693Z,32.97
2018-12-30T23:24:38.104Z,32.91
2018-12-30T23:27:04.432Z,32.93
2018-12-30T23:29:30.762Z,32.88
2018-12-30T23:31:57.163Z,32.91
2018-12-30T23:34:23.495Z,32.85
2018-12-30T23:36:49.804Z,32.85
2018-12-30T23:39:16.129Z,32.76
2018-12-30T23:41:42.539Z,32.77
2018-12-30T23:44:09.389Z,32.78
2018-12-30T23:46:35.212Z,32.85
2018-12-30T23:49:01.543Z,33.02
2018-12-30T23:51:27.998Z,33.06
2018-12-30T23:53:54.375Z,33.17
2018-12-30T23:56:20.760Z,33.42
2018-12-30T23:58:47.099Z,33.49
